sensor_id;sensor_type;location;lat;lon;timestamp;temperature;humidity
18085;DHT22;9169;44.492;11.372;2023-05-10T00:01:05;21.10;53.10
18085;DHT22;9169;44.492;11.372;2023-05-10T00:03:35;21.10;53.20
18085;DHT22;9169;44.492;11.372;2023-05-10T00:06:04;21.10;53.30
18085;DHT22;9169;44.492;11.372;2023-05-10T00:08:32;21.20;53.20
18085;DHT22;9169;44.492;11.372;2023-05-10T00:11:01;21.20;53.20
18085;DHT22;9169;44.492;11.372;2023-05-10T00:13:31;21.20;53.30
18085;DHT22;9169;44.492;11.372;2023-05-10T00:15:59;21.20;53.10
18085;DHT22;9169;44.492;11.372;2023-05-10T00:18:28;21.20;53.00
18085;DHT22;9169;44.492;11.372;2023-05-10T00:20:58;21.20;53.00
18085;DHT22;9169;44.492;11.372;2023-05-10T00:23:27;21.20;53.00
18085;DHT22;9169;44.492;11.372;2023-05-10T00:25:56;21.20;53.10
18085;DHT22;9169;44.492;11.372;2023-05-10T00:28:24;21.20;53.10
18085;DHT22;9169;44.492;11.372;2023-05-10T00:30:53;21.20;53.20
18085;DHT22;9169;44.492;11.372;2023-05-10T00:33:22;21.20;53.30
18085;DHT22;9169;44.492;11.372;2023-05-10T00:35:51;21.10;53.20
18085;DHT22;9169;44.492;11.372;2023-05-10T00:38:22;21.20;53.50
18085;DHT22;9169;44.492;11.372;2023-05-10T00:40:51;21.10;53.50
18085;DHT22;9169;44.492;11.372;2023-05-10T00:43:26;21.10;53.70
18085;DHT22;9169;44.492;11.372;2023-05-10T00:45:55;21.10;53.70
18085;DHT22;9169;44.492;11.372;2023-05-10T00:48:24;21.10;54.00
18085;DHT22;9169;44.492;11.372;2023-05-10T00:50:53;21.10;54.00
18085;DHT22;9169;44.492;11.372;2023-05-10T00:53:23;21.10;54.00
18085;DHT22;9169;44.492;11.372;2023-05-10T00:55:52;21.10;54.20
18085;DHT22;9169;44.492;11.372;2023-05-10T00:58:21;21.10;54.30
18085;DHT22;9169;44.492;11.372;2023-05-10T01:00:51;21.10;54.30
18085;DHT22;9169;44.492;11.372;2023-05-10T01:03:20;21.10;54.50
18085;DHT22;9169;44.492;11.372;2023-05-10T01:05:49;21.10;54.50
18085;DHT22;9169;44.492;11.372;2023-05-10T01:08:18;21.10;54.70
18085;DHT22;9169;44.492;11.372;2023-05-10T01:10:49;21.10;54.70
18085;DHT22;9169;44.492;11.372;2023-05-10T01:13:27;21.10;54.70
18085;DHT22;9169;44.492;11.372;2023-05-10T01:15:57;21.10;54.80
18085;DHT22;9169;44.492;11.372;2023-05-10T01:18:27;21.10;54.80
18085;DHT22;9169;44.492;11.372;2023-05-10T01:21:09;21.10;54.90
18085;DHT22;9169;44.492;11.372;2023-05-10T01:23:51;21.00;55.10
18085;DHT22;9169;44.492;11.372;2023-05-10T01:26:46;21.00;55.70
18085;DHT22;9169;44.492;11.372;2023-05-10T01:32:45;21.00;55.30
18085;DHT22;9169;44.492;11.372;2023-05-10T01:35:23;21.00;55.00
18085;DHT22;9169;44.492;11.372;2023-05-10T01:40:50;21.00;55.20
18085;DHT22;9169;44.492;11.372;2023-05-10T01:43:23;21.00;55.20
18085;DHT22;9169;44.492;11.372;2023-05-10T01:46:00;21.00;55.40
18085;DHT22;9169;44.492;11.372;2023-05-10T01:48:41;21.00;55.80
18085;DHT22;9169;44.492;11.372;2023-05-10T01:51:19;20.90;56.00
18085;DHT22;9169;44.492;11.372;2023-05-10T01:53:53;20.90;56.00
18085;DHT22;9169;44.492;11.372;2023-05-10T01:56:24;20.90;56.00
18085;DHT22;9169;44.492;11.372;2023-05-10T01:58:55;20.90;56.00
18085;DHT22;9169;44.492;11.372;2023-05-10T02:01:25;20.90;56.20
18085;DHT22;9169;44.492;11.372;2023-05-10T02:03:57;20.80;56.10
18085;DHT22;9169;44.492;11.372;2023-05-10T02:06:27;20.80;56.20
18085;DHT22;9169;44.492;11.372;2023-05-10T02:08:56;20.80;56.10
18085;DHT22;9169;44.492;11.372;2023-05-10T02:11:25;20.70;56.00
18085;DHT22;9169;44.492;11.372;2023-05-10T02:13:55;20.70;56.10
18085;DHT22;9169;44.492;11.372;2023-05-10T02:16:29;20.70;56.10
18085;DHT22;9169;44.492;11.372;2023-05-10T02:19:01;20.70;56.20
18085;DHT22;9169;44.492;11.372;2023-05-10T02:21:30;20.70;56.40
18085;DHT22;9169;44.492;11.372;2023-05-10T02:24:02;20.60;56.10
18085;DHT22;9169;44.492;11.372;2023-05-10T02:26:32;20.70;56.40
18085;DHT22;9169;44.492;11.372;2023-05-10T02:29:02;20.60;56.20
18085;DHT22;9169;44.492;11.372;2023-05-10T02:31:32;20.60;56.30
18085;DHT22;9169;44.492;11.372;2023-05-10T02:34:04;20.60;56.30
18085;DHT22;9169;44.492;11.372;2023-05-10T02:36:34;20.60;56.40
18085;DHT22;9169;44.492;11.372;2023-05-10T02:39:04;20.50;56.40
18085;DHT22;9169;44.492;11.372;2023-05-10T02:41:37;20.50;56.40
18085;DHT22;9169;44.492;11.372;2023-05-10T02:44:09;20.50;56.60
18085;DHT22;9169;44.492;11.372;2023-05-10T02:46:38;20.40;56.70
18085;DHT22;9169;44.492;11.372;2023-05-10T02:49:08;20.40;56.70
18085;DHT22;9169;44.492;11.372;2023-05-10T02:51:41;20.40;57.00
18085;DHT22;9169;44.492;11.372;2023-05-10T02:54:12;20.30;57.10
18085;DHT22;9169;44.492;11.372;2023-05-10T02:56:47;20.30;57.00
18085;DHT22;9169;44.492;11.372;2023-05-10T02:59:19;20.30;57.00
18085;DHT22;9169;44.492;11.372;2023-05-10T03:01:47;20.20;56.80
18085;DHT22;9169;44.492;11.372;2023-05-10T03:04:17;20.20;57.00
18085;DHT22;9169;44.492;11.372;2023-05-10T03:06:47;20.20;57.20
18085;DHT22;9169;44.492;11.372;2023-05-10T03:09:16;20.10;57.30
18085;DHT22;9169;44.492;11.372;2023-05-10T03:11:52;20.10;57.40
18085;DHT22;9169;44.492;11.372;2023-05-10T03:14:34;20.00;57.30
18085;DHT22;9169;44.492;11.372;2023-05-10T03:17:10;20.00;57.70
18085;DHT22;9169;44.492;11.372;2023-05-10T03:19:45;19.90;57.70
18085;DHT22;9169;44.492;11.372;2023-05-10T03:22:23;19.90;57.80
18085;DHT22;9169;44.492;11.372;2023-05-10T03:24:55;19.90;57.90
18085;DHT22;9169;44.492;11.372;2023-05-10T03:27:28;19.80;57.90
18085;DHT22;9169;44.492;11.372;2023-05-10T03:30:00;19.70;57.90
18085;DHT22;9169;44.492;11.372;2023-05-10T03:32:32;19.70;57.80
18085;DHT22;9169;44.492;11.372;2023-05-10T03:35:08;19.70;57.90
18085;DHT22;9169;44.492;11.372;2023-05-10T03:37:37;19.70;58.00
18085;DHT22;9169;44.492;11.372;2023-05-10T03:40:07;19.70;57.90
18085;DHT22;9169;44.492;11.372;2023-05-10T03:42:38;19.70;58.00
18085;DHT22;9169;44.492;11.372;2023-05-10T03:45:08;19.70;58.20
18085;DHT22;9169;44.492;11.372;2023-05-10T03:47:37;19.70;58.30
18085;DHT22;9169;44.492;11.372;2023-05-10T03:50:08;19.70;58.10
18085;DHT22;9169;44.492;11.372;2023-05-10T03:52:37;19.70;58.10
18085;DHT22;9169;44.492;11.372;2023-05-10T03:55:06;19.70;57.90
18085;DHT22;9169;44.492;11.372;2023-05-10T03:57:35;19.70;57.90
18085;DHT22;9169;44.492;11.372;2023-05-10T04:00:04;19.70;57.70
18085;DHT22;9169;44.492;11.372;2023-05-10T04:02:40;19.70;57.50
18085;DHT22;9169;44.492;11.372;2023-05-10T04:05:15;19.70;57.60
18085;DHT22;9169;44.492;11.372;2023-05-10T04:07:44;19.70;57.60
18085;DHT22;9169;44.492;11.372;2023-05-10T04:10:14;19.70;57.50
18085;DHT22;9169;44.492;11.372;2023-05-10T04:12:43;19.70;57.80
18085;DHT22;9169;44.492;11.372;2023-05-10T04:15:12;19.70;58.20
18085;DHT22;9169;44.492;11.372;2023-05-10T04:17:41;19.60;58.10
18085;DHT22;9169;44.492;11.372;2023-05-10T04:20:11;19.60;58.40
18085;DHT22;9169;44.492;11.372;2023-05-10T04:22:41;19.60;58.50
18085;DHT22;9169;44.492;11.372;2023-05-10T04:25:10;19.60;58.60
18085;DHT22;9169;44.492;11.372;2023-05-10T04:27:38;19.50;58.60
18085;DHT22;9169;44.492;11.372;2023-05-10T04:30:08;19.50;58.90
18085;DHT22;9169;44.492;11.372;2023-05-10T04:32:36;19.40;58.80
18085;DHT22;9169;44.492;11.372;2023-05-10T04:35:06;19.40;58.80
18085;DHT22;9169;44.492;11.372;2023-05-10T04:37:34;19.40;58.80
18085;DHT22;9169;44.492;11.372;2023-05-10T04:40:06;19.40;58.90
18085;DHT22;9169;44.492;11.372;2023-05-10T04:42:35;19.40;59.00
18085;DHT22;9169;44.492;11.372;2023-05-10T04:45:04;19.40;59.00
18085;DHT22;9169;44.492;11.372;2023-05-10T04:47:33;19.40;59.10
18085;DHT22;9169;44.492;11.372;2023-05-10T04:50:02;19.30;59.10
18085;DHT22;9169;44.492;11.372;2023-05-10T04:52:31;19.30;59.40
18085;DHT22;9169;44.492;11.372;2023-05-10T04:54:59;19.20;59.30
18085;DHT22;9169;44.492;11.372;2023-05-10T04:57:29;19.20;59.50
18085;DHT22;9169;44.492;11.372;2023-05-10T04:59:59;19.10;59.70
18085;DHT22;9169;44.492;11.372;2023-05-10T05:02:28;19.10;59.70
18085;DHT22;9169;44.492;11.372;2023-05-10T05:04:57;19.10;59.80
18085;DHT22;9169;44.492;11.372;2023-05-10T05:07:26;19.10;59.90
18085;DHT22;9169;44.492;11.372;2023-05-10T05:09:55;19.10;59.90
18085;DHT22;9169;44.492;11.372;2023-05-10T05:12:24;19.10;59.70
18085;DHT22;9169;44.492;11.372;2023-05-10T05:14:54;19.00;59.80
18085;DHT22;9169;44.492;11.372;2023-05-10T05:17:22;19.00;59.90
18085;DHT22;9169;44.492;11.372;2023-05-10T05:19:51;19.00;59.70
18085;DHT22;9169;44.492;11.372;2023-05-10T05:22:19;19.00;59.50
18085;DHT22;9169;44.492;11.372;2023-05-10T05:24:54;19.10;59.60
18085;DHT22;9169;44.492;11.372;2023-05-10T05:27:23;19.10;60.20
18085;DHT22;9169;44.492;11.372;2023-05-10T05:29:57;19.10;59.70
18085;DHT22;9169;44.492;11.372;2023-05-10T05:32:26;19.10;59.80
18085;DHT22;9169;44.492;11.372;2023-05-10T05:34:54;19.10;59.90
18085;DHT22;9169;44.492;11.372;2023-05-10T05:37:23;19.10;59.90
18085;DHT22;9169;44.492;11.372;2023-05-10T05:39:52;19.10;60.00
18085;DHT22;9169;44.492;11.372;2023-05-10T05:42:21;19.10;60.00
18085;DHT22;9169;44.492;11.372;2023-05-10T05:44:52;19.10;59.90
18085;DHT22;9169;44.492;11.372;2023-05-10T05:47:22;19.10;59.90
18085;DHT22;9169;44.492;11.372;2023-05-10T05:49:51;19.10;60.10
18085;DHT22;9169;44.492;11.372;2023-05-10T05:52:19;19.00;60.20
18085;DHT22;9169;44.492;11.372;2023-05-10T05:54:48;19.10;60.50
18085;DHT22;9169;44.492;11.372;2023-05-10T05:57:17;19.00;60.30
18085;DHT22;9169;44.492;11.372;2023-05-10T05:59:45;19.10;60.60
18085;DHT22;9169;44.492;11.372;2023-05-10T06:02:14;19.00;60.80
18085;DHT22;9169;44.492;11.372;2023-05-10T06:04:44;19.00;60.90
18085;DHT22;9169;44.492;11.372;2023-05-10T06:07:12;19.00;60.80
18085;DHT22;9169;44.492;11.372;2023-05-10T06:09:41;19.00;60.70
18085;DHT22;9169;44.492;11.372;2023-05-10T06:12:09;19.10;61.00
18085;DHT22;9169;44.492;11.372;2023-05-10T06:14:38;19.00;61.10
18085;DHT22;9169;44.492;11.372;2023-05-10T06:17:07;19.00;61.50
18085;DHT22;9169;44.492;11.372;2023-05-10T06:19:36;19.00;61.50
18085;DHT22;9169;44.492;11.372;2023-05-10T06:22:06;19.00;61.40
18085;DHT22;9169;44.492;11.372;2023-05-10T06:24:34;19.00;61.80
18085;DHT22;9169;44.492;11.372;2023-05-10T06:27:03;19.00;61.50
18085;DHT22;9169;44.492;11.372;2023-05-10T06:29:32;19.10;61.60
18085;DHT22;9169;44.492;11.372;2023-05-10T06:32:01;19.10;61.70
18085;DHT22;9169;44.492;11.372;2023-05-10T06:34:29;19.10;62.10
18085;DHT22;9169;44.492;11.372;2023-05-10T06:36:58;19.10;62.30
18085;DHT22;9169;44.492;11.372;2023-05-10T06:39:28;19.00;62.20
18085;DHT22;9169;44.492;11.372;2023-05-10T06:41:57;19.00;62.40
18085;DHT22;9169;44.492;11.372;2023-05-10T06:44:32;19.00;62.40
18085;DHT22;9169;44.492;11.372;2023-05-10T06:47:03;19.00;62.60
18085;DHT22;9169;44.492;11.372;2023-05-10T06:49:31;19.00;62.70
18085;DHT22;9169;44.492;11.372;2023-05-10T06:52:00;19.00;62.60
18085;DHT22;9169;44.492;11.372;2023-05-10T06:54:30;19.10;62.50
18085;DHT22;9169;44.492;11.372;2023-05-10T06:56:58;19.10;62.50
18085;DHT22;9169;44.492;11.372;2023-05-10T06:59:28;19.00;62.50
18085;DHT22;9169;44.492;11.372;2023-05-10T07:01:56;19.00;62.60
18085;DHT22;9169;44.492;11.372;2023-05-10T07:04:25;19.00;62.60
18085;DHT22;9169;44.492;11.372;2023-05-10T07:06:53;19.00;62.60
18085;DHT22;9169;44.492;11.372;2023-05-10T07:09:25;19.00;63.20
18085;DHT22;9169;44.492;11.372;2023-05-10T07:11:55;19.00;63.00
18085;DHT22;9169;44.492;11.372;2023-05-10T07:14:25;19.00;63.00
18085;DHT22;9169;44.492;11.372;2023-05-10T07:16:53;19.00;62.70
18085;DHT22;9169;44.492;11.372;2023-05-10T07:19:22;19.00;62.90
18085;DHT22;9169;44.492;11.372;2023-05-10T07:21:51;18.90;63.10
18085;DHT22;9169;44.492;11.372;2023-05-10T07:24:19;18.90;63.40
18085;DHT22;9169;44.492;11.372;2023-05-10T07:26:48;18.90;63.70
18085;DHT22;9169;44.492;11.372;2023-05-10T07:29:18;18.80;63.90
18085;DHT22;9169;44.492;11.372;2023-05-10T07:31:47;18.90;64.20
18085;DHT22;9169;44.492;11.372;2023-05-10T07:34:15;18.90;64.20
18085;DHT22;9169;44.492;11.372;2023-05-10T07:36:44;18.90;64.30
18085;DHT22;9169;44.492;11.372;2023-05-10T07:39:13;18.90;64.70
18085;DHT22;9169;44.492;11.372;2023-05-10T07:41:44;18.90;64.50
18085;DHT22;9169;44.492;11.372;2023-05-10T07:44:13;18.90;64.20
18085;DHT22;9169;44.492;11.372;2023-05-10T07:46:43;18.90;64.10
18085;DHT22;9169;44.492;11.372;2023-05-10T07:49:12;18.90;65.00
18085;DHT22;9169;44.492;11.372;2023-05-10T07:51:41;18.90;64.20
18085;DHT22;9169;44.492;11.372;2023-05-10T07:54:09;18.90;64.00
18085;DHT22;9169;44.492;11.372;2023-05-10T07:56:38;18.80;63.80
18085;DHT22;9169;44.492;11.372;2023-05-10T07:59:09;18.80;64.00
18085;DHT22;9169;44.492;11.372;2023-05-10T08:01:38;18.80;63.80
18085;DHT22;9169;44.492;11.372;2023-05-10T08:04:08;18.80;63.50
18085;DHT22;9169;44.492;11.372;2023-05-10T08:06:37;18.90;63.60
18085;DHT22;9169;44.492;11.372;2023-05-10T08:09:06;18.80;63.40
18085;DHT22;9169;44.492;11.372;2023-05-10T08:11:35;18.80;63.40
18085;DHT22;9169;44.492;11.372;2023-05-10T08:14:03;18.80;63.50
18085;DHT22;9169;44.492;11.372;2023-05-10T08:16:32;18.90;63.60
18085;DHT22;9169;44.492;11.372;2023-05-10T08:19:01;18.90;63.40
18085;DHT22;9169;44.492;11.372;2023-05-10T08:21:32;18.80;63.10
18085;DHT22;9169;44.492;11.372;2023-05-10T08:24:00;18.80;63.10
18085;DHT22;9169;44.492;11.372;2023-05-10T08:26:30;18.80;63.00
18085;DHT22;9169;44.492;11.372;2023-05-10T08:28:59;18.80;63.00
18085;DHT22;9169;44.492;11.372;2023-05-10T08:31:27;18.80;62.80
18085;DHT22;9169;44.492;11.372;2023-05-10T08:33:56;18.90;62.90
18085;DHT22;9169;44.492;11.372;2023-05-10T08:36:25;18.90;62.90
18085;DHT22;9169;44.492;11.372;2023-05-10T08:38:55;18.90;63.00
18085;DHT22;9169;44.492;11.372;2023-05-10T08:41:24;18.90;63.00
18085;DHT22;9169;44.492;11.372;2023-05-10T08:43:54;18.90;63.20
18085;DHT22;9169;44.492;11.372;2023-05-10T08:46:23;18.90;63.30
18085;DHT22;9169;44.492;11.372;2023-05-10T08:48:51;18.90;63.40
18085;DHT22;9169;44.492;11.372;2023-05-10T08:51:24;18.90;63.40
18085;DHT22;9169;44.492;11.372;2023-05-10T08:53:55;18.90;63.70
18085;DHT22;9169;44.492;11.372;2023-05-10T08:56:25;18.90;63.70
18085;DHT22;9169;44.492;11.372;2023-05-10T08:58:53;18.90;63.60
18085;DHT22;9169;44.492;11.372;2023-05-10T09:01:23;19.00;63.80
18085;DHT22;9169;44.492;11.372;2023-05-10T09:03:52;18.90;63.70
18085;DHT22;9169;44.492;11.372;2023-05-10T09:06:21;18.90;63.70
18085;DHT22;9169;44.492;11.372;2023-05-10T09:08:50;18.90;64.10
18085;DHT22;9169;44.492;11.372;2023-05-10T09:11:22;18.90;64.50
18085;DHT22;9169;44.492;11.372;2023-05-10T09:13:52;19.00;64.70
18085;DHT22;9169;44.492;11.372;2023-05-10T09:16:21;18.90;64.60
18085;DHT22;9169;44.492;11.372;2023-05-10T09:18:50;18.90;64.50
18085;DHT22;9169;44.492;11.372;2023-05-10T09:21:19;18.90;64.40
18085;DHT22;9169;44.492;11.372;2023-05-10T09:23:48;18.90;64.50
18085;DHT22;9169;44.492;11.372;2023-05-10T09:26:23;18.90;64.70
18085;DHT22;9169;44.492;11.372;2023-05-10T09:28:53;18.90;64.80
18085;DHT22;9169;44.492;11.372;2023-05-10T09:31:23;18.90;65.20
18085;DHT22;9169;44.492;11.372;2023-05-10T09:33:52;18.90;65.20
18085;DHT22;9169;44.492;11.372;2023-05-10T09:36:21;18.90;65.10
18085;DHT22;9169;44.492;11.372;2023-05-10T09:38:51;18.90;65.20
18085;DHT22;9169;44.492;11.372;2023-05-10T09:41:23;19.00;65.50
18085;DHT22;9169;44.492;11.372;2023-05-10T09:43:55;19.00;65.80
18085;DHT22;9169;44.492;11.372;2023-05-10T09:46:24;19.00;65.70
18085;DHT22;9169;44.492;11.372;2023-05-10T09:48:53;19.00;65.50
18085;DHT22;9169;44.492;11.372;2023-05-10T09:51:25;19.00;65.50
18085;DHT22;9169;44.492;11.372;2023-05-10T09:54:09;18.90;65.30
18085;DHT22;9169;44.492;11.372;2023-05-10T09:56:40;18.90;65.50
18085;DHT22;9169;44.492;11.372;2023-05-10T09:59:10;18.90;65.40
18085;DHT22;9169;44.492;11.372;2023-05-10T10:01:39;18.90;65.50
18085;DHT22;9169;44.492;11.372;2023-05-10T10:04:09;18.80;65.70
18085;DHT22;9169;44.492;11.372;2023-05-10T10:06:39;18.80;65.90
18085;DHT22;9169;44.492;11.372;2023-05-10T10:09:08;18.80;65.90
18085;DHT22;9169;44.492;11.372;2023-05-10T10:11:39;18.80;66.00
18085;DHT22;9169;44.492;11.372;2023-05-10T10:14:08;18.80;65.90
18085;DHT22;9169;44.492;11.372;2023-05-10T10:16:37;18.90;65.90
18085;DHT22;9169;44.492;11.372;2023-05-10T10:19:12;18.90;65.90
18085;DHT22;9169;44.492;11.372;2023-05-10T10:21:41;18.90;65.60
18085;DHT22;9169;44.492;11.372;2023-05-10T10:24:09;18.90;65.40
18085;DHT22;9169;44.492;11.372;2023-05-10T10:26:40;18.90;65.10
18085;DHT22;9169;44.492;11.372;2023-05-10T10:29:19;18.90;65.10
18085;DHT22;9169;44.492;11.372;2023-05-10T10:31:57;18.90;65.10
18085;DHT22;9169;44.492;11.372;2023-05-10T10:34:29;18.90;65.00
18085;DHT22;9169;44.492;11.372;2023-05-10T10:37:04;18.90;64.70
18085;DHT22;9169;44.492;11.372;2023-05-10T10:39:33;18.90;64.60
18085;DHT22;9169;44.492;11.372;2023-05-10T10:42:05;18.90;64.70
18085;DHT22;9169;44.492;11.372;2023-05-10T10:44:36;18.90;64.70
18085;DHT22;9169;44.492;11.372;2023-05-10T10:47:10;18.90;64.70
18085;DHT22;9169;44.492;11.372;2023-05-10T10:49:49;18.80;65.10
18085;DHT22;9169;44.492;11.372;2023-05-10T10:52:26;18.80;65.10
18085;DHT22;9169;44.492;11.372;2023-05-10T10:55:02;18.80;64.90
18085;DHT22;9169;44.492;11.372;2023-05-10T10:57:42;18.80;64.70
18085;DHT22;9169;44.492;11.372;2023-05-10T11:00:23;18.80;64.70
18085;DHT22;9169;44.492;11.372;2023-05-10T11:02:53;18.80;64.60
18085;DHT22;9169;44.492;11.372;2023-05-10T11:08:17;18.80;64.40
18085;DHT22;9169;44.492;11.372;2023-05-10T11:10:51;18.80;64.40
18085;DHT22;9169;44.492;11.372;2023-05-10T11:13:32;18.80;64.40
18085;DHT22;9169;44.492;11.372;2023-05-10T11:16:14;18.80;64.50
18085;DHT22;9169;44.492;11.372;2023-05-10T11:18:53;18.80;64.60
18085;DHT22;9169;44.492;11.372;2023-05-10T11:21:22;18.80;64.50
18085;DHT22;9169;44.492;11.372;2023-05-10T11:23:53;18.80;64.40
18085;DHT22;9169;44.492;11.372;2023-05-10T11:26:24;18.90;64.40
18085;DHT22;9169;44.492;11.372;2023-05-10T11:28:55;18.80;64.30
18085;DHT22;9169;44.492;11.372;2023-05-10T11:31:28;18.80;64.10
18085;DHT22;9169;44.492;11.372;2023-05-10T11:33:58;18.70;63.90
18085;DHT22;9169;44.492;11.372;2023-05-10T11:36:32;18.70;63.80
18085;DHT22;9169;44.492;11.372;2023-05-10T11:39:01;18.70;64.50
18085;DHT22;9169;44.492;11.372;2023-05-10T11:41:30;18.70;63.80
18085;DHT22;9169;44.492;11.372;2023-05-10T11:44:01;18.60;63.60
18085;DHT22;9169;44.492;11.372;2023-05-10T11:46:30;18.60;63.70
18085;DHT22;9169;44.492;11.372;2023-05-10T11:49:00;18.60;63.70
18085;DHT22;9169;44.492;11.372;2023-05-10T11:51:33;18.60;63.70
18085;DHT22;9169;44.492;11.372;2023-05-10T11:54:06;18.60;64.10
18085;DHT22;9169;44.492;11.372;2023-05-10T11:56:36;18.50;63.80
18085;DHT22;9169;44.492;11.372;2023-05-10T11:59:06;18.50;63.80
18085;DHT22;9169;44.492;11.372;2023-05-10T12:01:35;18.50;63.90
18085;DHT22;9169;44.492;11.372;2023-05-10T12:04:04;18.50;63.70
18085;DHT22;9169;44.492;11.372;2023-05-10T12:06:39;18.40;63.70
18085;DHT22;9169;44.492;11.372;2023-05-10T12:09:08;18.40;63.70
18085;DHT22;9169;44.492;11.372;2023-05-10T12:11:38;18.40;63.80
18085;DHT22;9169;44.492;11.372;2023-05-10T12:14:11;18.40;63.70
18085;DHT22;9169;44.492;11.372;2023-05-10T12:16:39;18.40;63.60
18085;DHT22;9169;44.492;11.372;2023-05-10T12:19:08;18.30;63.50
18085;DHT22;9169;44.492;11.372;2023-05-10T12:21:37;18.30;63.60
18085;DHT22;9169;44.492;11.372;2023-05-10T12:24:06;18.30;63.70
18085;DHT22;9169;44.492;11.372;2023-05-10T12:26:36;18.20;63.50
18085;DHT22;9169;44.492;11.372;2023-05-10T12:29:23;18.20;63.70
18085;DHT22;9169;44.492;11.372;2023-05-10T12:31:53;18.20;63.70
18085;DHT22;9169;44.492;11.372;2023-05-10T12:34:31;18.20;63.70
18085;DHT22;9169;44.492;11.372;2023-05-10T12:37:00;18.10;64.00
18085;DHT22;9169;44.492;11.372;2023-05-10T12:39:39;18.10;63.80
18085;DHT22;9169;44.492;11.372;2023-05-10T12:42:08;18.10;64.00
18085;DHT22;9169;44.492;11.372;2023-05-10T12:44:38;18.10;63.90
18085;DHT22;9169;44.492;11.372;2023-05-10T12:47:07;18.10;63.90
18085;DHT22;9169;44.492;11.372;2023-05-10T12:49:35;18.10;64.10
18085;DHT22;9169;44.492;11.372;2023-05-10T12:52:04;18.10;64.00
18085;DHT22;9169;44.492;11.372;2023-05-10T12:54:33;18.10;64.00
18085;DHT22;9169;44.492;11.372;2023-05-10T12:57:01;18.00;63.70
18085;DHT22;9169;44.492;11.372;2023-05-10T12:59:30;18.00;64.00
18085;DHT22;9169;44.492;11.372;2023-05-10T13:02:00;18.00;64.00
18085;DHT22;9169;44.492;11.372;2023-05-10T13:04:28;17.90;64.30
18085;DHT22;9169;44.492;11.372;2023-05-10T13:06:57;17.90;64.40
18085;DHT22;9169;44.492;11.372;2023-05-10T13:09:26;17.90;64.60
18085;DHT22;9169;44.492;11.372;2023-05-10T13:11:56;17.80;64.70
18085;DHT22;9169;44.492;11.372;2023-05-10T13:14:25;17.80;65.20
18085;DHT22;9169;44.492;11.372;2023-05-10T13:16:53;17.70;65.10
18085;DHT22;9169;44.492;11.372;2023-05-10T13:19:24;17.70;65.20
18085;DHT22;9169;44.492;11.372;2023-05-10T13:21:52;17.70;65.40
18085;DHT22;9169;44.492;11.372;2023-05-10T13:24:21;17.70;65.60
18085;DHT22;9169;44.492;11.372;2023-05-10T13:26:50;17.70;65.70
18085;DHT22;9169;44.492;11.372;2023-05-10T13:29:18;17.80;66.80
18085;DHT22;9169;44.492;11.372;2023-05-10T13:31:48;17.80;66.10
18085;DHT22;9169;44.492;11.372;2023-05-10T13:34:17;17.80;66.20
18085;DHT22;9169;44.492;11.372;2023-05-10T13:36:52;17.80;66.20
18085;DHT22;9169;44.492;11.372;2023-05-10T13:39:23;17.90;66.30
18085;DHT22;9169;44.492;11.372;2023-05-10T13:41:51;17.90;66.20
18085;DHT22;9169;44.492;11.372;2023-05-10T13:44:21;17.80;66.10
18085;DHT22;9169;44.492;11.372;2023-05-10T13:46:50;17.80;66.20
18085;DHT22;9169;44.492;11.372;2023-05-10T13:49:19;17.80;66.10
18085;DHT22;9169;44.492;11.372;2023-05-10T13:51:48;17.80;66.10
18085;DHT22;9169;44.492;11.372;2023-05-10T13:54:19;17.90;66.40
18085;DHT22;9169;44.492;11.372;2023-05-10T13:56:52;17.90;66.70
18085;DHT22;9169;44.492;11.372;2023-05-10T13:59:20;17.90;66.80
18085;DHT22;9169;44.492;11.372;2023-05-10T14:01:49;17.90;66.70
18085;DHT22;9169;44.492;11.372;2023-05-10T14:04:18;17.90;66.80
18085;DHT22;9169;44.492;11.372;2023-05-10T14:06:47;17.90;66.80
18085;DHT22;9169;44.492;11.372;2023-05-10T14:09:15;17.90;66.80
18085;DHT22;9169;44.492;11.372;2023-05-10T14:11:45;17.90;66.90
18085;DHT22;9169;44.492;11.372;2023-05-10T14:14:14;17.90;67.00
18085;DHT22;9169;44.492;11.372;2023-05-10T14:16:44;17.90;67.00
18085;DHT22;9169;44.492;11.372;2023-05-10T14:19:13;18.00;67.30
18085;DHT22;9169;44.492;11.372;2023-05-10T14:21:42;17.90;67.20
18085;DHT22;9169;44.492;11.372;2023-05-10T14:24:10;18.00;67.50
18085;DHT22;9169;44.492;11.372;2023-05-10T14:26:39;18.00;67.50
18085;DHT22;9169;44.492;11.372;2023-05-10T14:29:09;17.90;67.50
18085;DHT22;9169;44.492;11.372;2023-05-10T14:31:38;17.90;67.70
18085;DHT22;9169;44.492;11.372;2023-05-10T14:34:07;17.90;67.50
18085;DHT22;9169;44.492;11.372;2023-05-10T14:36:36;17.90;67.90
18085;DHT22;9169;44.492;11.372;2023-05-10T14:39:04;17.90;67.70
18085;DHT22;9169;44.492;11.372;2023-05-10T14:41:33;17.90;67.70
18085;DHT22;9169;44.492;11.372;2023-05-10T14:44:02;17.90;67.80
18085;DHT22;9169;44.492;11.372;2023-05-10T14:46:32;17.90;67.90
18085;DHT22;9169;44.492;11.372;2023-05-10T14:49:01;17.80;67.80
18085;DHT22;9169;44.492;11.372;2023-05-10T14:51:30;17.80;68.20
18085;DHT22;9169;44.492;11.372;2023-05-10T14:53:59;17.80;68.10
18085;DHT22;9169;44.492;11.372;2023-05-10T14:56:27;17.80;68.10
18085;DHT22;9169;44.492;11.372;2023-05-10T14:58:56;17.80;68.20
18085;DHT22;9169;44.492;11.372;2023-05-10T15:01:24;17.80;68.10
18085;DHT22;9169;44.492;11.372;2023-05-10T15:03:54;17.80;68.20
18085;DHT22;9169;44.492;11.372;2023-05-10T15:06:30;17.80;68.40
18085;DHT22;9169;44.492;11.372;2023-05-10T15:09:00;17.70;68.40
18085;DHT22;9169;44.492;11.372;2023-05-10T15:11:29;17.70;68.40
18085;DHT22;9169;44.492;11.372;2023-05-10T15:13:58;17.70;68.70
18085;DHT22;9169;44.492;11.372;2023-05-10T15:16:27;17.60;68.50
18085;DHT22;9169;44.492;11.372;2023-05-10T15:18:57;17.60;68.80
18085;DHT22;9169;44.492;11.372;2023-05-10T15:21:25;17.60;69.10
18085;DHT22;9169;44.492;11.372;2023-05-10T15:23:54;17.50;69.10
18085;DHT22;9169;44.492;11.372;2023-05-10T15:26:23;17.50;69.10
18085;DHT22;9169;44.492;11.372;2023-05-10T15:28:53;17.40;69.20
18085;DHT22;9169;44.492;11.372;2023-05-10T15:31:22;17.40;69.60
18085;DHT22;9169;44.492;11.372;2023-05-10T15:33:50;17.40;69.80
18085;DHT22;9169;44.492;11.372;2023-05-10T15:36:21;17.40;70.20
18085;DHT22;9169;44.492;11.372;2023-05-10T15:38:49;17.50;70.60
18085;DHT22;9169;44.492;11.372;2023-05-10T15:41:18;17.50;70.60
18085;DHT22;9169;44.492;11.372;2023-05-10T15:43:46;17.50;70.70
18085;DHT22;9169;44.492;11.372;2023-05-10T15:46:16;17.50;70.90
18085;DHT22;9169;44.492;11.372;2023-05-10T15:48:45;17.50;70.90
18085;DHT22;9169;44.492;11.372;2023-05-10T15:51:14;17.50;71.20
18085;DHT22;9169;44.492;11.372;2023-05-10T15:53:44;17.60;71.50
18085;DHT22;9169;44.492;11.372;2023-05-10T15:56:19;17.60;71.40
18085;DHT22;9169;44.492;11.372;2023-05-10T15:58:48;17.60;71.30